createdAt,value
2017-10-16T00:00:47.507Z,1013.00
2017-10-16T00:01:48.116Z,1012.94
2017-10-16T00:02:48.726Z,1012.98
2017-10-16T00:03:49.323Z,1012.99
2017-10-16T00:04:49.936Z,1012.95
2017-10-16T00:05:50.541Z,1012.99
2017-10-16T00:06:51.150Z,1012.99
2017-10-16T00:07:51.748Z,1012.96
2017-10-16T00:08:52.357Z,1012.98
2017-10-16T00:09:52.964Z,1012.94
2017-10-16T00:10:53.573Z,1012.97
2017-10-16T00:11:54.171Z,1012.94
2017-10-16T00:12:54.779Z,1012.97
2017-10-16T00:13:55.385Z,1012.93
2017-10-16T00:14:55.997Z,1012.91
2017-10-16T00:15:56.608Z,1012.91
2017-10-16T00:16:57.204Z,1012.95
2017-10-16T00:17:57.814Z,1012.93
2017-10-16T00:18:58.424Z,1012.90
2017-10-16T00:19:59.021Z,1012.92
2017-10-16T00:20:59.634Z,1012.89
2017-10-16T00:22:00.241Z,1012.91
2017-10-16T00:23:00.848Z,1012.92
2017-10-16T00:24:01.453Z,1012.92
2017-10-16T00:25:02.054Z,1012.90
2017-10-16T00:26:02.664Z,1012.89
2017-10-16T00:27:03.289Z,1012.93
2017-10-16T00:28:03.878Z,1012.93
2017-10-16T00:29:04.488Z,1012.95
2017-10-16T00:30:05.099Z,1012.95
2017-10-16T00:31:05.701Z,1012.93
2017-10-16T00:32:06.307Z,1012.93
2017-10-16T00:33:06.917Z,1012.94
2017-10-16T00:34:07.529Z,1012.92
2017-10-16T00:35:08.137Z,1012.93
2017-10-16T00:36:08.737Z,1012.94
2017-10-16T00:37:09.347Z,1012.93
2017-10-16T00:38:09.954Z,1012.96
2017-10-16T00:39:10.561Z,1012.96
2017-10-16T00:40:11.161Z,1012.91
2017-10-16T00:41:11.774Z,1012.89
2017-10-16T00:42:12.371Z,1012.92
2017-10-16T00:43:12.975Z,1012.91
2017-10-16T00:44:13.585Z,1012.93
2017-10-16T00:45:14.193Z,1012.87
2017-10-16T00:46:14.807Z,1012.99
2017-10-16T00:47:15.407Z,1012.92
2017-10-16T00:48:16.012Z,1012.90
2017-10-16T00:49:16.618Z,1012.92
2017-10-16T00:50:17.216Z,1012.86
2017-10-16T00:51:17.815Z,1012.87
2017-10-16T00:52:18.423Z,1012.82
2017-10-16T00:53:19.037Z,1012.85
2017-10-16T00:54:19.646Z,1012.83
2017-10-16T00:55:20.251Z,1012.77
2017-10-16T00:56:20.853Z,1012.83
2017-10-16T00:57:21.487Z,1012.83
2017-10-16T00:58:22.074Z,1012.77
2017-10-16T00:59:22.683Z,1012.83
2017-10-16T01:00:23.284Z,1012.76
2017-10-16T01:01:23.890Z,1012.75
2017-10-16T01:02:24.501Z,1012.74
2017-10-16T01:03:25.108Z,1012.70
2017-10-16T01:04:25.720Z,1012.67
2017-10-16T01:05:26.330Z,1012.70
2017-10-16T01:06:26.938Z,1012.68
2017-10-16T01:07:27.547Z,1012.72
2017-10-16T01:08:28.153Z,1012.69
2017-10-16T01:09:28.759Z,1012.71
2017-10-16T01:10:29.369Z,1012.71
2017-10-16T01:11:29.971Z,1012.69
2017-10-16T01:12:30.577Z,1012.68
2017-10-16T01:13:31.176Z,1012.67
2017-10-16T01:14:31.782Z,1012.66
2017-10-16T01:15:33.383Z,1012.64
2017-10-16T01:16:33.991Z,1012.60
2017-10-16T01:17:34.601Z,1012.61
2017-10-16T01:18:35.211Z,1012.54
2017-10-16T01:19:35.821Z,1012.54
2017-10-16T01:20:36.430Z,1012.53
2017-10-16T01:21:37.040Z,1012.54
2017-10-16T01:22:37.649Z,1012.48
2017-10-16T01:23:38.259Z,1012.50
2017-10-16T01:24:38.869Z,1012.47
2017-10-16T01:25:39.478Z,1012.48
2017-10-16T01:26:40.090Z,1012.45
2017-10-16T01:27:40.700Z,1012.44
2017-10-16T01:28:41.299Z,1012.40
2017-10-16T01:29:41.894Z,1012.43
2017-10-16T01:30:42.508Z,1012.41
2017-10-16T01:31:43.103Z,1012.47
2017-10-16T01:32:43.712Z,1012.40
2017-10-16T01:33:44.322Z,1012.39
2017-10-16T01:34:44.928Z,1012.42
2017-10-16T01:35:45.530Z,1012.41
2017-10-16T01:36:46.124Z,1012.39
2017-10-16T01:37:46.736Z,1012.39
2017-10-16T01:38:47.348Z,1012.37
2017-10-16T01:39:47.952Z,1012.38
2017-10-16T01:40:48.550Z,1012.37
2017-10-16T01:41:49.158Z,1012.34
2017-10-16T01:42:49.756Z,1012.33
2017-10-16T01:43:50.364Z,1012.33
2017-10-16T01:44:50.970Z,1012.34
2017-10-16T01:45:51.571Z,1012.34
2017-10-16T01:46:52.169Z,1012.34
2017-10-16T01:47:52.777Z,1012.36
2017-10-16T01:48:53.384Z,1012.39
2017-10-16T01:49:53.999Z,1012.41
2017-10-16T01:50:54.603Z,1012.33
2017-10-16T01:51:55.208Z,1012.35
2017-10-16T01:52:55.815Z,1012.31
2017-10-16T01:53:56.415Z,1012.31
2017-10-16T01:54:57.023Z,1012.30
2017-10-16T01:55:57.628Z,1012.28
2017-10-16T01:56:58.220Z,1012.28
2017-10-16T01:57:58.816Z,1012.25
2017-10-16T01:58:59.426Z,1012.28
2017-10-16T02:00:00.032Z,1012.24
2017-10-16T02:01:00.637Z,1012.25
2017-10-16T02:02:01.244Z,1012.24
2017-10-16T02:03:01.854Z,1012.27
2017-10-16T02:04:02.463Z,1012.25
2017-10-16T02:05:03.071Z,1012.24
2017-10-16T02:06:03.684Z,1012.27
2017-10-16T02:07:04.280Z,1012.26
2017-10-16T02:08:04.890Z,1012.26
2017-10-16T02:09:05.486Z,1012.26
2017-10-16T02:10:06.096Z,1012.23
2017-10-16T02:11:06.705Z,1012.26
2017-10-16T02:12:07.311Z,1012.26
2017-10-16T02:13:07.917Z,1012.27
2017-10-16T02:14:08.528Z,1012.28
2017-10-16T02:15:09.132Z,1012.31
2017-10-16T02:16:09.733Z,1012.31
2017-10-16T02:17:10.327Z,1012.31
2017-10-16T02:18:10.938Z,1012.34
2017-10-16T02:19:11.537Z,1012.35
2017-10-16T02:20:12.135Z,1012.37
2017-10-16T02:21:12.734Z,1012.39
2017-10-16T02:22:13.329Z,1012.40
2017-10-16T02:23:13.940Z,1012.44
2017-10-16T02:24:14.537Z,1012.43
2017-10-16T02:25:15.134Z,1012.40
2017-10-16T02:26:15.729Z,1012.38
2017-10-16T02:27:16.344Z,1012.36
2017-10-16T02:28:16.952Z,1012.40
2017-10-16T02:29:17.547Z,1012.36
2017-10-16T02:30:18.145Z,1012.38
2017-10-16T02:31:18.755Z,1012.39
2017-10-16T02:32:19.351Z,1012.40
2017-10-16T02:33:19.959Z,1012.42
2017-10-16T02:34:20.561Z,1012.40
2017-10-16T02:35:21.166Z,1012.39
2017-10-16T02:36:21.764Z,1012.35
2017-10-16T02:37:22.373Z,1012.38
2017-10-16T02:38:22.983Z,1012.35
2017-10-16T02:39:23.590Z,1012.32
2017-10-16T02:40:24.190Z,1012.32
2017-10-16T02:41:24.796Z,1012.35
2017-10-16T02:42:25.431Z,1012.34
2017-10-16T02:43:26.040Z,1012.33
2017-10-16T02:44:26.619Z,1012.33
2017-10-16T02:45:27.228Z,1012.30
2017-10-16T02:46:27.817Z,1012.34
2017-10-16T02:47:28.430Z,1012.37
2017-10-16T02:48:29.034Z,1012.39
2017-10-16T02:49:29.646Z,1012.32
2017-10-16T02:50:30.240Z,1012.36
2017-10-16T02:51:30.843Z,1012.34
2017-10-16T02:52:31.450Z,1012.36
2017-10-16T02:53:32.063Z,1012.34
2017-10-16T02:54:32.674Z,1012.29
2017-10-16T02:55:33.268Z,1012.32
2017-10-16T02:56:33.870Z,1012.30
2017-10-16T02:57:34.474Z,1012.29
2017-10-16T02:58:35.072Z,1012.37
2017-10-16T02:59:35.676Z,1012.39
2017-10-16T03:00:36.287Z,1012.35
2017-10-16T03:01:36.899Z,1012.36
2017-10-16T03:02:37.505Z,1012.36
2017-10-16T03:03:38.109Z,1012.43
2017-10-16T03:04:38.702Z,1012.45
2017-10-16T03:05:39.312Z,1012.44
2017-10-16T03:06:39.918Z,1012.45
2017-10-16T03:07:40.518Z,1012.40
2017-10-16T03:08:41.125Z,1012.40
2017-10-16T03:09:41.735Z,1012.39
2017-10-16T03:10:42.345Z,1012.43
2017-10-16T03:11:42.949Z,1012.41
2017-10-16T03:12:43.559Z,1012.39
2017-10-16T03:13:44.170Z,1012.33
2017-10-16T03:14:44.777Z,1012.36
2017-10-16T03:15:45.373Z,1012.42
2017-10-16T03:16:45.982Z,1012.42
2017-10-16T03:17:46.593Z,1012.38
2017-10-16T03:18:47.199Z,1012.39
2017-10-16T03:19:47.796Z,1012.35
2017-10-16T03:20:48.406Z,1012.34
2017-10-16T03:21:49.012Z,1012.35
2017-10-16T03:22:49.620Z,1012.32
2017-10-16T03:23:50.232Z,1012.32
2017-10-16T03:24:50.839Z,1012.31
2017-10-16T03:25:51.442Z,1012.35
2017-10-16T03:26:52.048Z,1012.33
2017-10-16T03:27:52.661Z,1012.33
2017-10-16T03:28:53.268Z,1012.32
2017-10-16T03:29:53.878Z,1012.34
2017-10-16T03:30:54.492Z,1012.30
2017-10-16T03:31:55.099Z,1012.31
2017-10-16T03:32:55.699Z,1012.30
2017-10-16T03:33:56.307Z,1012.28
2017-10-16T03:34:56.910Z,1012.24
2017-10-16T03:35:57.507Z,1012.23
2017-10-16T03:36:58.118Z,1012.23
2017-10-16T03:37:58.729Z,1012.22
2017-10-16T03:38:59.330Z,1012.18
2017-10-16T03:39:59.931Z,1012.17
2017-10-16T03:41:00.535Z,1012.16
2017-10-16T03:42:01.134Z,1012.12
2017-10-16T03:43:01.746Z,1012.14
2017-10-16T03:44:02.346Z,1012.11
2017-10-16T03:45:02.958Z,1012.15
2017-10-16T03:46:03.556Z,1012.14
2017-10-16T03:47:04.161Z,1012.15
2017-10-16T03:48:04.773Z,1012.17
2017-10-16T03:49:05.379Z,1012.18
2017-10-16T03:50:05.979Z,1012.20
2017-10-16T03:51:06.578Z,1012.14
2017-10-16T03:52:07.182Z,1012.17
2017-10-16T03:53:07.782Z,1012.21
2017-10-16T03:54:08.388Z,1012.23
2017-10-16T03:55:08.999Z,1012.25
2017-10-16T03:56:09.604Z,1012.22
2017-10-16T03:57:10.214Z,1012.24
2017-10-16T03:58:10.822Z,1012.23
2017-10-16T03:59:11.435Z,1012.25
2017-10-16T04:00:12.049Z,1012.22
2017-10-16T04:01:12.654Z,1012.22
2017-10-16T04:02:13.262Z,1012.18
2017-10-16T04:03:13.856Z,1012.18
2017-10-16T04:04:14.466Z,1012.19
2017-10-16T04:05:15.076Z,1012.14
2017-10-16T04:06:15.681Z,1012.17
2017-10-16T04:07:16.291Z,1012.17
2017-10-16T04:08:16.898Z,1012.22
2017-10-16T04:09:17.505Z,1012.18
2017-10-16T04:10:18.113Z,1012.25
2017-10-16T04:11:18.717Z,1012.27
2017-10-16T04:12:19.318Z,1012.32
2017-10-16T04:13:19.927Z,1012.36
2017-10-16T04:14:20.533Z,1012.38
2017-10-16T04:15:21.142Z,1012.36
2017-10-16T04:16:21.754Z,1012.42
2017-10-16T04:17:22.348Z,1012.42
2017-10-16T04:18:22.958Z,1012.35
2017-10-16T04:19:23.567Z,1012.29
2017-10-16T04:20:24.172Z,1012.36
2017-10-16T04:21:24.772Z,1012.35
2017-10-16T04:22:25.381Z,1012.33
2017-10-16T04:23:25.987Z,1012.30
2017-10-16T04:24:26.596Z,1012.27
2017-10-16T04:25:27.203Z,1012.29
2017-10-16T04:26:27.812Z,1012.33
2017-10-16T04:27:28.411Z,1012.31
2017-10-16T04:28:29.010Z,1012.24
2017-10-16T04:29:29.614Z,1012.23
2017-10-16T04:30:30.212Z,1012.30
2017-10-16T04:31:30.810Z,1012.39
2017-10-16T04:32:31.421Z,1012.31
2017-10-16T04:33:32.027Z,1012.33
2017-10-16T04:34:32.638Z,1012.25
2017-10-16T04:35:33.250Z,1012.33
2017-10-16T04:36:33.857Z,1012.33
2017-10-16T04:37:34.452Z,1012.35
2017-10-16T04:38:35.062Z,1012.35
2017-10-16T04:39:35.669Z,1012.33
2017-10-16T04:40:36.264Z,1012.38
2017-10-16T04:41:36.872Z,1012.39
2017-10-16T04:42:37.468Z,1012.35
2017-10-16T04:43:38.076Z,1012.35
2017-10-16T04:44:38.687Z,1012.39
2017-10-16T04:45:39.295Z,1012.34
2017-10-16T04:46:39.902Z,1012.32
2017-10-16T04:47:40.501Z,1012.30
2017-10-16T04:48:41.113Z,1012.37
2017-10-16T04:49:41.707Z,1012.35
2017-10-16T04:50:42.313Z,1012.29
2017-10-16T04:51:42.924Z,1012.30
2017-10-16T04:52:43.529Z,1012.30
2017-10-16T04:53:44.144Z,1012.23
2017-10-16T04:54:44.748Z,1012.23
2017-10-16T04:55:45.356Z,1012.26
2017-10-16T04:56:45.966Z,1012.28
2017-10-16T04:57:46.567Z,1012.27
2017-10-16T04:58:47.161Z,1012.21
2017-10-16T04:59:47.772Z,1012.18
2017-10-16T05:00:48.378Z,1012.18
2017-10-16T05:01:48.991Z,1012.19
2017-10-16T05:02:49.599Z,1012.18
2017-10-16T05:03:50.199Z,1012.23
2017-10-16T05:04:50.792Z,1012.27
2017-10-16T05:05:51.401Z,1012.36
2017-10-16T05:06:52.010Z,1012.44
2017-10-16T05:07:52.605Z,1012.36
2017-10-16T05:08:53.208Z,1012.41
2017-10-16T05:09:53.814Z,1012.37
2017-10-16T05:10:54.422Z,1012.40
2017-10-16T05:11:55.020Z,1012.38
2017-10-16T05:12:55.628Z,1012.40
2017-10-16T05:13:56.245Z,1012.42
2017-10-16T05:14:56.856Z,1012.44
2017-10-16T05:15:57.460Z,1012.44
2017-10-16T05:16:58.062Z,1012.47
2017-10-16T05:17:58.672Z,1012.43
2017-10-16T05:18:59.286Z,1012.43
2017-10-16T05:19:59.894Z,1012.45
2017-10-16T05:21:00.500Z,1012.46
2017-10-16T05:22:01.107Z,1012.43
2017-10-16T05:23:01.716Z,1012.41
2017-10-16T05:24:02.317Z,1012.32
2017-10-16T05:25:02.928Z,1012.29
2017-10-16T05:26:03.523Z,1012.23
2017-10-16T05:27:04.122Z,1012.20
2017-10-16T05:28:04.730Z,1012.26
2017-10-16T05:29:05.326Z,1012.21
2017-10-16T05:30:05.926Z,1012.25
2017-10-16T05:31:06.529Z,1012.24
2017-10-16T05:32:07.140Z,1012.25
2017-10-16T05:33:07.748Z,1012.28
2017-10-16T05:34:08.347Z,1012.27
2017-10-16T05:35:08.955Z,1012.23
2017-10-16T05:36:09.570Z,1012.26
2017-10-16T05:37:10.181Z,1012.28
2017-10-16T05:38:10.789Z,1012.28
2017-10-16T05:39:11.399Z,1012.30
2017-10-16T05:40:12.005Z,1012.36
2017-10-16T05:41:12.613Z,1012.35
2017-10-16T05:42:13.223Z,1012.38
2017-10-16T05:43:13.832Z,1012.40
2017-10-16T05:44:14.446Z,1012.39
2017-10-16T05:45:15.051Z,1012.35
2017-10-16T05:46:15.662Z,1012.39
2017-10-16T05:47:16.271Z,1012.46
2017-10-16T05:48:16.870Z,1012.45
2017-10-16T05:49:17.483Z,1012.43
2017-10-16T05:50:18.096Z,1012.50
2017-10-16T05:51:18.705Z,1012.56
2017-10-16T05:52:19.319Z,1012.55
2017-10-16T05:53:19.927Z,1012.51
2017-10-16T05:54:20.541Z,1012.48
2017-10-16T05:55:21.155Z,1012.50
2017-10-16T05:56:21.766Z,1012.49
2017-10-16T05:57:22.378Z,1012.42
2017-10-16T05:58:22.965Z,1012.39
2017-10-16T05:59:23.581Z,1012.33
2017-10-16T06:00:24.189Z,1012.32
2017-10-16T06:01:24.805Z,1012.36
2017-10-16T06:02:25.404Z,1012.32
2017-10-16T06:03:26.222Z,1012.36
2017-10-16T06:04:26.833Z,1012.35
2017-10-16T06:05:27.447Z,1012.43
2017-10-16T06:06:28.047Z,1012.43
2017-10-16T06:07:28.661Z,1012.44
2017-10-16T06:08:29.272Z,1012.44
2017-10-16T06:09:29.883Z,1012.46
2017-10-16T06:10:30.494Z,1012.44
2017-10-16T06:11:31.110Z,1012.40
2017-10-16T06:12:31.721Z,1012.39
2017-10-16T06:13:32.338Z,1012.32
2017-10-16T06:14:32.952Z,1012.29
2017-10-16T06:15:33.564Z,1012.29
2017-10-16T06:16:34.181Z,1012.29
2017-10-16T06:17:34.847Z,1012.23
2017-10-16T06:18:35.462Z,1012.19
2017-10-16T06:19:36.077Z,1012.17
2017-10-16T06:20:36.700Z,1012.14
2017-10-16T06:21:37.308Z,1012.10
2017-10-16T06:22:37.919Z,1012.08
2017-10-16T06:23:38.524Z,1012.06
2017-10-16T06:24:39.128Z,1012.08
2017-10-16T06:25:39.739Z,1011.96
2017-10-16T06:26:40.355Z,1011.91
2017-10-16T06:27:40.967Z,1011.91
2017-10-16T06:28:41.580Z,1011.93
2017-10-16T06:29:42.195Z,1012.03
2017-10-16T06:30:42.937Z,1012.13
2017-10-16T06:31:43.535Z,1012.15
2017-10-16T06:32:44.191Z,1012.13
2017-10-16T06:33:44.766Z,1012.09
2017-10-16T06:34:45.376Z,1012.07
2017-10-16T06:35:45.979Z,1012.12
2017-10-16T06:36:46.624Z,1012.15
2017-10-16T06:37:47.220Z,1012.13
2017-10-16T06:38:47.837Z,1012.17
2017-10-16T06:39:48.454Z,1012.24
2017-10-16T06:40:49.051Z,1012.32
2017-10-16T06:41:49.654Z,1012.29
2017-10-16T06:42:50.270Z,1012.28
2017-10-16T06:43:50.874Z,1012.33
2017-10-16T06:44:51.491Z,1012.37
2017-10-16T06:45:52.107Z,1012.27
2017-10-16T06:46:52.735Z,1012.28
2017-10-16T06:47:53.345Z,1012.26
2017-10-16T06:48:53.962Z,1012.28
2017-10-16T06:49:54.575Z,1012.33
2017-10-16T06:50:55.188Z,1012.30
2017-10-16T06:51:55.793Z,1012.30
2017-10-16T06:52:56.410Z,1012.32
2017-10-16T06:53:57.018Z,1012.33
2017-10-16T06:54:57.633Z,1012.34
2017-10-16T06:55:58.244Z,1012.34
2017-10-16T06:56:58.852Z,1012.36
2017-10-16T06:57:59.463Z,1012.32
2017-10-16T06:59:00.080Z,1012.39
2017-10-16T07:00:00.686Z,1012.40
2017-10-16T07:01:01.302Z,1012.41
2017-10-16T07:02:01.926Z,1012.46
2017-10-16T07:03:02.534Z,1012.44
2017-10-16T07:04:03.147Z,1012.47
2017-10-16T07:05:03.762Z,1012.41
2017-10-16T07:06:04.383Z,1012.39
2017-10-16T07:07:05.001Z,1012.39
2017-10-16T07:08:05.608Z,1012.40
2017-10-16T07:09:06.223Z,1012.40
2017-10-16T07:10:06.830Z,1012.37
2017-10-16T07:11:07.435Z,1012.38
2017-10-16T07:12:08.053Z,1012.38
2017-10-16T07:13:08.658Z,1012.37
2017-10-16T07:14:09.275Z,1012.39
2017-10-16T07:15:09.888Z,1012.39
2017-10-16T07:16:10.503Z,1012.38
2017-10-16T07:17:11.118Z,1012.37
2017-10-16T07:18:11.723Z,1012.41
2017-10-16T07:19:12.347Z,1012.43
2017-10-16T07:20:12.966Z,1012.46
2017-10-16T07:21:13.586Z,1012.44
2017-10-16T07:22:14.208Z,1012.41
2017-10-16T07:23:14.828Z,1012.51
2017-10-16T07:24:15.438Z,1012.43
2017-10-16T07:25:16.057Z,1012.47
2017-10-16T07:26:16.683Z,1012.45
2017-10-16T07:27:17.287Z,1012.47
2017-10-16T07:28:17.910Z,1012.46
2017-10-16T07:29:18.526Z,1012.46
2017-10-16T07:30:19.157Z,1012.51
2017-10-16T07:31:19.777Z,1012.48
2017-10-16T07:32:20.390Z,1012.45
2017-10-16T07:33:21.010Z,1012.45
2017-10-16T07:34:21.631Z,1012.46
2017-10-16T07:35:22.249Z,1012.46
2017-10-16T07:36:22.874Z,1012.48
2017-10-16T07:37:23.497Z,1012.44
2017-10-16T07:38:24.123Z,1012.44
2017-10-16T07:39:24.734Z,1012.48
2017-10-16T07:40:25.360Z,1012.47
2017-10-16T07:41:25.983Z,1012.42
2017-10-16T07:42:26.608Z,1012.50
2017-10-16T07:43:27.217Z,1012.47
2017-10-16T07:44:27.838Z,1012.52
2017-10-16T07:45:28.453Z,1012.49
2017-10-16T07:46:29.080Z,1012.52
2017-10-16T07:47:29.708Z,1012.51
2017-10-16T07:48:30.333Z,1012.54
2017-10-16T07:49:30.966Z,1012.57
2017-10-16T07:50:31.581Z,1012.55
2017-10-16T07:51:32.211Z,1012.58
2017-10-16T07:52:32.832Z,1012.57
2017-10-16T07:53:33.454Z,1012.64
2017-10-16T07:54:34.078Z,1012.60
2017-10-16T07:55:34.694Z,1012.61
2017-10-16T07:56:35.638Z,1012.66
2017-10-16T07:57:36.161Z,1012.59
2017-10-16T07:58:36.790Z,1012.64
2017-10-16T07:59:37.410Z,1012.67
2017-10-16T08:00:38.034Z,1012.65
2017-10-16T08:01:38.668Z,1012.65
2017-10-16T08:02:39.300Z,1012.68
2017-10-16T08:03:39.990Z,1012.65
2017-10-16T08:04:40.562Z,1012.64
2017-10-16T08:05:41.186Z,1012.67
2017-10-16T08:06:41.813Z,1012.68
2017-10-16T08:07:42.437Z,1012.66
2017-10-16T08:08:43.087Z,1012.68
2017-10-16T08:09:43.690Z,1012.68
2017-10-16T08:10:44.310Z,1012.68
2017-10-16T08:11:44.939Z,1012.74
2017-10-16T08:12:45.558Z,1012.73
2017-10-16T08:13:46.188Z,1012.75
2017-10-16T08:14:46.821Z,1012.79
2017-10-16T08:15:47.451Z,1012.77
2017-10-16T08:16:48.077Z,1012.79
2017-10-16T08:17:48.708Z,1012.86
2017-10-16T08:18:49.373Z,1012.81
2017-10-16T08:19:50.010Z,1012.81
2017-10-16T08:20:50.654Z,1012.78
2017-10-16T08:21:51.277Z,1012.84
2017-10-16T08:22:51.916Z,1012.83
2017-10-16T08:23:52.524Z,1012.82
2017-10-16T08:24:53.139Z,1012.83
2017-10-16T08:25:53.764Z,1012.87
2017-10-16T08:26:54.376Z,1012.87
2017-10-16T08:27:55.003Z,1012.89
2017-10-16T08:28:55.632Z,1012.92
2017-10-16T08:29:56.267Z,1012.92
2017-10-16T08:30:56.898Z,1012.90
2017-10-16T08:31:57.543Z,1012.94
2017-10-16T08:32:58.200Z,1012.93
2017-10-16T08:33:59.017Z,1012.94
2017-10-16T08:35:00.082Z,1012.89
2017-10-16T08:36:00.659Z,1012.93
2017-10-16T08:37:01.278Z,1012.93
2017-10-16T08:38:01.920Z,1012.92
2017-10-16T08:39:02.547Z,1012.96
2017-10-16T08:40:03.184Z,1012.99
2017-10-16T08:41:03.951Z,1013.02
2017-10-16T08:42:04.476Z,1013.00
2017-10-16T08:43:05.114Z,1013.04
2017-10-16T08:44:05.730Z,1012.98
2017-10-16T08:45:06.344Z,1013.02
2017-10-16T08:46:06.969Z,1012.99
2017-10-16T08:47:07.587Z,1013.03
2017-10-16T08:48:08.217Z,1013.01
2017-10-16T08:49:08.855Z,1013.03
2017-10-16T08:50:09.461Z,1013.10
2017-10-16T08:51:10.083Z,1013.06
2017-10-16T08:52:10.712Z,1013.06
2017-10-16T08:53:11.348Z,1013.09
2017-10-16T08:54:11.989Z,1013.13
2017-10-16T08:55:12.612Z,1013.10
2017-10-16T08:56:13.244Z,1013.10
2017-10-16T08:57:13.879Z,1013.11
2017-10-16T08:58:14.501Z,1013.12
2017-10-16T08:59:15.196Z,1013.07
2017-10-16T09:00:15.782Z,1013.12
2017-10-16T09:01:16.411Z,1013.08
2017-10-16T09:02:17.042Z,1013.07
2017-10-16T09:03:17.673Z,1013.11
2017-10-16T09:04:18.432Z,1013.09
2017-10-16T09:05:19.048Z,1013.10
2017-10-16T09:06:19.678Z,1013.15
2017-10-16T09:07:20.296Z,1013.18
2017-10-16T09:08:20.919Z,1013.16
2017-10-16T09:09:21.552Z,1013.16
2017-10-16T09:10:22.178Z,1013.17
2017-10-16T09:11:22.806Z,1013.16
2017-10-16T09:12:23.551Z,1013.16
2017-10-16T09:13:24.182Z,1013.16
2017-10-16T09:14:24.958Z,1013.11
2017-10-16T09:15:25.813Z,1013.16
2017-10-16T09:16:26.433Z,1013.15
2017-10-16T09:17:27.064Z,1013.16
2017-10-16T09:18:27.694Z,1013.11
2017-10-16T09:19:28.325Z,1013.20
2017-10-16T09:20:28.952Z,1013.19
2017-10-16T09:21:29.583Z,1013.20
2017-10-16T09:22:30.217Z,1013.24
2017-10-16T09:23:30.856Z,1013.23
2017-10-16T09:24:31.491Z,1013.23
2017-10-16T09:25:32.121Z,1013.23
2017-10-16T09:26:32.752Z,1013.23
2017-10-16T09:27:33.379Z,1013.23
2017-10-16T09:28:34.248Z,1013.22
2017-10-16T09:29:34.959Z,1013.25
2017-10-16T09:30:35.579Z,1013.23
2017-10-16T09:31:36.302Z,1013.21
2017-10-16T09:32:36.921Z,1013.23
2017-10-16T09:33:37.838Z,1013.24
2017-10-16T09:34:38.473Z,1013.26
2017-10-16T09:35:39.106Z,1013.29
2017-10-16T09:36:39.768Z,1013.27
2017-10-16T09:37:40.398Z,1013.25
2017-10-16T09:38:41.046Z,1013.25
2017-10-16T09:39:41.660Z,1013.28
2017-10-16T09:40:42.295Z,1013.28
2017-10-16T09:41:42.925Z,1013.28
2017-10-16T09:42:43.559Z,1013.25
2017-10-16T09:43:44.189Z,1013.27
2017-10-16T09:44:44.867Z,1013.27
2017-10-16T09:45:45.454Z,1013.20
2017-10-16T09:46:46.086Z,1013.22
2017-10-16T09:47:47.014Z,1013.22
2017-10-16T09:48:47.539Z,1013.22
2017-10-16T09:49:48.203Z,1013.24
2017-10-16T09:50:48.901Z,1013.25
2017-10-16T09:51:49.555Z,1013.27
2017-10-16T09:52:50.194Z,1013.27
2017-10-16T09:53:50.834Z,1013.25
2017-10-16T09:54:51.688Z,1013.30
2017-10-16T09:55:52.335Z,1013.27
2017-10-16T09:56:52.995Z,1013.26
2017-10-16T09:57:53.634Z,1013.28
2017-10-16T09:58:54.465Z,1013.30
2017-10-16T09:59:55.109Z,1013.31
2017-10-16T10:00:55.735Z,1013.29
2017-10-16T10:01:56.355Z,1013.30
2017-10-16T10:02:56.994Z,1013.30
2017-10-16T10:03:57.610Z,1013.27
2017-10-16T10:04:58.265Z,1013.30
2017-10-16T10:05:58.892Z,1013.25
2017-10-16T10:06:59.531Z,1013.23
2017-10-16T10:08:00.174Z,1013.27
2017-10-16T10:09:00.810Z,1013.24
2017-10-16T10:10:01.648Z,1013.22
2017-10-16T10:11:02.277Z,1013.25
2017-10-16T10:12:02.963Z,1013.24
2017-10-16T10:13:03.577Z,1013.23
2017-10-16T10:14:04.211Z,1013.23
2017-10-16T10:15:04.856Z,1013.25
2017-10-16T10:16:05.498Z,1013.21
2017-10-16T10:17:06.125Z,1013.21
2017-10-16T10:18:06.764Z,1013.24
2017-10-16T10:19:07.401Z,1013.20
2017-10-16T10:20:08.086Z,1013.18
2017-10-16T10:21:08.690Z,1013.20
2017-10-16T10:22:09.318Z,1013.19
2017-10-16T10:23:09.938Z,1013.20
2017-10-16T10:24:10.564Z,1013.17
2017-10-16T10:25:11.204Z,1013.18
2017-10-16T10:26:11.828Z,1013.19
2017-10-16T10:27:12.451Z,1013.19
2017-10-16T10:28:13.075Z,1013.22
2017-10-16T10:29:13.694Z,1013.20
2017-10-16T10:30:14.331Z,1013.24
2017-10-16T10:31:14.945Z,1013.24
2017-10-16T10:32:15.572Z,1013.24
2017-10-16T10:33:16.191Z,1013.21
2017-10-16T10:34:16.828Z,1013.25
2017-10-16T10:35:17.463Z,1013.25
2017-10-16T10:36:18.090Z,1013.30
2017-10-16T10:37:18.713Z,1013.28
2017-10-16T10:38:19.351Z,1013.27
2017-10-16T10:39:19.968Z,1013.30
2017-10-16T10:40:20.605Z,1013.32
2017-10-16T10:41:21.238Z,1013.31
2017-10-16T10:42:21.864Z,1013.28
2017-10-16T10:43:22.502Z,1013.26
2017-10-16T10:44:23.126Z,1013.27
2017-10-16T10:45:23.764Z,1013.29
2017-10-16T10:46:24.403Z,1013.27
2017-10-16T10:47:25.254Z,1013.26
2017-10-16T10:48:25.892Z,1013.28
2017-10-16T10:49:26.516Z,1013.27
2017-10-16T10:50:27.150Z,1013.29
2017-10-16T10:51:27.787Z,1013.27
2017-10-16T10:52:28.618Z,1013.22
2017-10-16T10:53:29.259Z,1013.28
2017-10-16T10:54:29.891Z,1013.24
2017-10-16T10:55:30.514Z,1013.27
2017-10-16T10:56:31.149Z,1013.22
2017-10-16T10:57:31.774Z,1013.19
2017-10-16T10:58:32.406Z,1013.21
2017-10-16T10:59:33.040Z,1013.18
2017-10-16T11:00:33.669Z,1013.20
2017-10-16T11:01:34.298Z,1013.20
2017-10-16T11:02:34.939Z,1013.18
2017-10-16T11:03:35.573Z,1013.16
2017-10-16T11:04:36.197Z,1013.15
2017-10-16T11:05:36.834Z,1013.15
2017-10-16T11:06:37.461Z,1013.17
2017-10-16T11:07:38.100Z,1013.15
2017-10-16T11:08:38.730Z,1013.09
2017-10-16T11:09:39.355Z,1013.11
2017-10-16T11:10:39.991Z,1013.11
2017-10-16T11:11:40.623Z,1013.08
2017-10-16T11:12:41.246Z,1013.08
2017-10-16T11:13:42.429Z,1013.06
2017-10-16T11:14:43.170Z,1013.05
2017-10-16T11:15:43.703Z,1013.05
2017-10-16T11:16:44.351Z,1013.10
2017-10-16T11:17:44.983Z,1013.06
2017-10-16T11:18:45.610Z,1013.06
2017-10-16T11:19:46.248Z,1013.04
2017-10-16T11:20:47.068Z,1013.00
2017-10-16T11:21:47.697Z,1013.04
2017-10-16T11:22:48.343Z,1012.99
2017-10-16T11:23:48.988Z,1012.99
2017-10-16T11:24:49.607Z,1013.00
2017-10-16T11:25:50.268Z,1012.96
2017-10-16T11:26:50.933Z,1012.99
2017-10-16T11:27:51.530Z,1012.97
2017-10-16T11:28:52.160Z,1012.97
2017-10-16T11:29:52.803Z,1013.01
2017-10-16T11:30:53.417Z,1012.99
2017-10-16T11:31:54.042Z,1012.97
2017-10-16T11:32:54.684Z,1012.95
2017-10-16T11:33:55.316Z,1012.89
2017-10-16T11:34:55.953Z,1012.93
2017-10-16T11:35:56.586Z,1012.87
2017-10-16T11:36:57.400Z,1012.89
2017-10-16T11:37:57.938Z,1012.87
2017-10-16T11:38:58.566Z,1012.85
2017-10-16T11:39:59.207Z,1012.80
2017-10-16T11:40:59.834Z,1012.80
2017-10-16T11:42:00.466Z,1012.75
2017-10-16T11:43:01.101Z,1012.77
2017-10-16T11:44:01.743Z,1012.78
2017-10-16T11:45:02.374Z,1012.81
2017-10-16T11:46:03.010Z,1012.74
2017-10-16T11:47:03.872Z,1012.75
2017-10-16T11:48:04.505Z,1012.73
2017-10-16T11:49:05.135Z,1012.77
2017-10-16T11:50:05.765Z,1012.74
2017-10-16T11:51:06.397Z,1012.70
2017-10-16T11:52:07.253Z,1012.72
2017-10-16T11:53:07.903Z,1012.69
2017-10-16T11:54:08.544Z,1012.68
2017-10-16T11:55:09.163Z,1012.69
2017-10-16T11:56:09.800Z,1012.69
2017-10-16T11:57:10.452Z,1012.67
2017-10-16T11:58:11.068Z,1012.67
2017-10-16T11:59:11.709Z,1012.61
2017-10-16T12:00:12.343Z,1012.63
2017-10-16T12:01:12.986Z,1012.62
2017-10-16T12:02:13.617Z,1012.58
2017-10-16T12:03:14.260Z,1012.55
2017-10-16T12:04:14.899Z,1012.55
2017-10-16T12:05:15.551Z,1012.50
2017-10-16T12:06:16.185Z,1012.51
2017-10-16T12:07:16.828Z,1012.48
2017-10-16T12:08:17.456Z,1012.45
2017-10-16T12:09:18.096Z,1012.45
2017-10-16T12:10:18.730Z,1012.45
2017-10-16T12:11:19.354Z,1012.44
2017-10-16T12:12:19.989Z,1012.36
2017-10-16T12:13:20.627Z,1012.37